Terminal Aerodrome Forecast
Issued by NWS Grand Forks, ND

Home | Current Version | Previous Version | Text Only | Print | Product List | Glossary On
Versions: 1 2 3 4 5 6 7 8 9 10 11 12 13 14
000
FTUS43 KFGF 171100
TAFFAR
TAF
KFAR 171135Z 1712/1812 35007KT P6SM SKC
     FM171700 02006KT P6SM SKC
     FM180200 08008KT P6SM SCT100=

USA.gov is the U.S. government's official web portal to all federal, state and local government web resources and services.